Time;durP1;ratioP1;P1;durP2;ratioP2;P2;SDS_P1;SDS_P2;PMS_P1;PMS_P2;Temp;Humidity;BMP_temperature;BMP_pressure;BME280_temperature;BME280_humidity;BME280_pressure;Samples;Min_cycle;Max_cycle;Signal;HPM_P1;HPM_P2
2022/07/19 00:00:08;;;;;;;7.23;3.90;;;19.70;99.90;;;;;;4920577;29;20219;-74
2022/07/19 00:02:35;;;;;;;6.60;3.70;;;19.70;99.90;;;;;;4920164;29;20615;-73
2022/07/19 00:05:03;;;;;;;7.40;3.73;;;19.70;99.90;;;;;;4920221;29;20203;-73
2022/07/19 00:07:30;;;;;;;7.13;4.10;;;19.70;99.90;;;;;;4920193;29;20325;-73
2022/07/19 00:09:57;;;;;;;10.87;3.80;;;19.70;99.90;;;;;;4920179;29;20302;-73
2022/07/19 00:12:24;;;;;;;5.50;3.60;;;19.70;99.90;;;;;;4919725;29;20281;-74
2022/07/19 00:14:51;;;;;;;7.27;4.10;;;19.70;99.90;;;;;;4936594;29;20205;-73
2022/07/19 00:17:18;;;;;;;6.23;3.73;;;19.70;99.90;;;;;;4920313;29;20223;-73
2022/07/19 00:19:45;;;;;;;11.67;4.07;;;19.60;99.90;;;;;;4920529;29;20213;-73
2022/07/19 00:22:13;;;;;;;11.67;3.90;;;19.60;99.90;;;;;;4919778;29;20230;-73
2022/07/19 00:24:40;;;;;;;6.33;3.53;;;19.60;99.90;;;;;;4919883;29;20230;-73
2022/07/19 00:27:07;;;;;;;6.47;3.87;;;19.60;99.90;;;;;;4920011;29;20210;-73
2022/07/19 00:29:34;;;;;;;7.13;3.43;;;19.60;99.90;;;;;;4919746;29;20300;-73
2022/07/19 00:32:01;;;;;;;7.93;3.87;;;19.60;99.90;;;;;;4919578;29;20310;-75
2022/07/19 00:34:28;;;;;;;7.10;3.70;;;19.60;99.90;;;;;;4936933;29;20658;-74
2022/07/19 00:36:55;;;;;;;8.73;4.17;;;19.60;99.90;;;;;;4919432;29;20198;-75
2022/07/19 00:39:22;;;;;;;7.03;4.20;;;19.60;99.90;;;;;;4919597;29;20293;-74
2022/07/19 00:41:49;;;;;;;10.57;4.13;;;19.60;99.90;;;;;;4919738;29;20254;-74
2022/07/19 00:44:20;;;;;;;7.00;4.20;;;19.60;99.90;;;;;;4936851;29;20213;-75
2022/07/19 00:46:47;;;;;;;8.77;4.00;;;19.60;99.90;;;;;;4919568;29;20211;-75
2022/07/19 00:49:14;;;;;;;5.87;3.70;;;19.60;99.90;;;;;;4936828;29;20202;-75
2022/07/19 00:51:43;;;;;;;6.57;3.97;;;19.50;99.90;;;;;;4919840;29;20546;-73
2022/07/19 00:54:14;;;;;;;7.27;3.90;;;19.50;99.90;;;;;;4919191;29;20206;-74
2022/07/19 00:56:43;;;;;;;8.40;4.30;;;19.50;99.90;;;;;;4936417;29;20540;-74
2022/07/19 00:59:11;;;;;;;9.40;4.40;;;19.50;99.90;;;;;;4919538;29;20209;-75
2022/07/19 01:01:40;;;;;;;7.33;4.27;;;19.50;99.90;;;;;;4919522;29;20250;-74
2022/07/19 01:04:08;;;;;;;9.67;4.40;;;19.50;99.90;;;;;;4919292;29;20234;-74
2022/07/19 01:06:35;;;;;;;7.83;4.20;;;19.60;99.90;;;;;;4919091;29;20203;-73
2022/07/19 01:09:03;;;;;;;8.07;4.87;;;19.40;99.90;;;;;;4918929;29;20693;-75
2022/07/19 01:11:30;;;;;;;9.83;4.00;;;19.50;99.90;;;;;;4919289;29;20214;-74
2022/07/19 01:13:59;;;;;;;6.20;4.10;;;19.50;99.90;;;;;;4919312;29;20225;-74
2022/07/19 01:16:27;;;;;;;7.17;4.23;;;19.40;99.90;;;;;;4936459;29;20227;-74
2022/07/19 01:18:54;;;;;;;6.73;4.20;;;19.40;99.90;;;;;;4918973;29;20238;-73
2022/07/19 01:21:23;;;;;;;11.07;4.57;;;19.40;99.90;;;;;;4918902;29;20771;-74
2022/07/19 01:23:51;;;;;;;7.47;4.33;;;19.40;99.90;;;;;;4918796;29;20242;-74
2022/07/19 01:26:18;;;;;;;8.90;4.30;;;19.50;99.90;;;;;;4921895;29;20285;-74
2022/07/19 01:28:46;;;;;;;7.03;4.03;;;19.50;99.90;;;;;;4925477;29;20305;-74
2022/07/19 01:31:13;;;;;;;8.43;4.20;;;19.50;99.90;;;;;;4925062;29;20312;-74
2022/07/19 01:33:45;;;;;;;7.73;3.80;;;19.50;99.90;;;;;;4925517;29;20649;-74
2022/07/19 01:36:13;;;;;;;7.50;4.27;;;19.40;99.90;;;;;;4925182;29;20289;-73
2022/07/19 01:38:40;;;;;;;8.70;4.40;;;19.30;99.90;;;;;;4924824;29;20696;-73
2022/07/19 01:41:07;;;;;;;9.50;4.03;;;19.40;99.90;;;;;;4942183;29;20727;-74
2022/07/19 01:43:34;;;;;;;7.00;3.90;;;19.30;99.90;;;;;;4925378;29;20210;-76
2022/07/19 01:46:02;;;;;;;6.77;3.97;;;19.30;99.90;;;;;;4925107;29;20744;-75
2022/07/19 01:48:30;;;;;;;7.23;4.07;;;19.30;99.90;;;;;;4925277;29;20210;-75
2022/07/19 01:50:58;;;;;;;6.47;4.13;;;19.20;99.90;;;;;;4925081;29;20230;-74
2022/07/19 01:53:25;;;;;;;7.37;4.23;;;19.20;99.90;;;;;;4924868;29;20218;-74
2022/07/19 01:55:52;;;;;;;5.63;4.03;;;19.20;99.90;;;;;;4941247;29;20217;-76
2022/07/19 01:58:19;;;;;;;7.33;4.00;;;19.20;99.90;;;;;;4925277;29;20770;-77
2022/07/19 02:00:50;;;;;;;6.43;4.30;;;19.10;99.90;;;;;;4924992;29;20206;-76
2022/07/19 02:03:18;;;;;;;6.27;4.10;;;19.10;99.90;;;;;;4924924;29;20238;-75
2022/07/19 02:05:44;;;;;;;8.37;4.27;;;19.10;99.90;;;;;;4925077;29;20199;-75
2022/07/19 02:08:13;;;;;;;10.33;4.00;;;19.10;99.90;;;;;;4924779;29;20281;-76
2022/07/19 02:10:39;;;;;;;7.67;4.07;;;19.10;99.90;;;;;;4924910;29;20306;-76
2022/07/19 02:13:06;;;;;;;6.03;3.70;;;19.20;99.90;;;;;;4924931;29;20301;-76
2022/07/19 02:15:33;;;;;;;8.10;4.47;;;19.10;99.90;;;;;;4924998;29;20205;-75
2022/07/19 02:18:01;;;;;;;5.83;3.80;;;19.20;99.90;;;;;;4924774;29;20237;-74
2022/07/19 02:20:28;;;;;;;6.33;4.20;;;19.20;99.90;;;;;;4924771;29;20206;-74
2022/07/19 02:22:56;;;;;;;6.87;4.00;;;19.10;99.90;;;;;;4924857;29;20611;-74
2022/07/19 02:25:23;;;;;;;7.33;4.30;;;19.10;99.90;;;;;;4925072;29;20671;-74
2022/07/19 02:27:50;;;;;;;8.10;4.00;;;19.10;99.90;;;;;;4925181;29;20608;-75
2022/07/19 02:30:17;;;;;;;7.00;3.83;;;19.00;99.90;;;;;;4941836;29;20584;-75
2022/07/19 02:32:44;;;;;;;6.47;3.97;;;19.00;99.90;;;;;;4924643;29;20224;-75
2022/07/19 02:35:12;;;;;;;6.60;4.10;;;19.00;99.90;;;;;;4925059;29;20211;-75
2022/07/19 02:37:40;;;;;;;6.90;4.13;;;19.00;99.90;;;;;;4922699;29;20219;-74
2022/07/19 02:40:08;;;;;;;5.53;3.73;;;19.00;99.90;;;;;;4937962;29;20250;-75
2022/07/19 02:42:35;;;;;;;7.40;4.07;;;19.00;99.90;;;;;;4921693;29;20207;-75
2022/07/19 02:45:03;;;;;;;8.57;4.37;;;19.00;99.90;;;;;;4921772;29;20293;-77
2022/07/19 02:47:30;;;;;;;7.50;4.30;;;19.00;99.90;;;;;;4921714;29;20767;-76
2022/07/19 02:49:57;;;;;;;8.40;4.23;;;19.00;99.90;;;;;;4921548;29;20289;-75
2022/07/19 02:52:24;;;;;;;7.60;4.27;;;18.90;99.90;;;;;;4938873;29;20187;-76
2022/07/19 02:54:52;;;;;;;7.83;4.27;;;18.90;99.90;;;;;;4921534;29;20222;-75
2022/07/19 02:57:19;;;;;;;13.10;5.20;;;18.90;99.90;;;;;;4921746;29;20202;-75
2022/07/19 02:59:45;;;;;;;12.63;4.53;;;18.90;99.90;;;;;;4938558;29;20229;-75
2022/07/19 03:02:12;;;;;;;7.47;4.60;;;18.90;99.90;;;;;;4921483;29;20290;-75
2022/07/19 03:04:39;;;;;;;12.53;5.23;;;18.90;99.90;;;;;;4921270;29;20653;-76
2022/07/19 03:07:06;;;;;;;6.37;4.43;;;18.90;99.90;;;;;;4906055;29;20250;-76
2022/07/19 03:09:33;;;;;;;7.03;4.40;;;18.90;99.90;;;;;;4938086;29;20227;-75
2022/07/19 03:12:00;;;;;;;6.10;4.23;;;18.90;99.90;;;;;;4921282;29;20299;-75
2022/07/19 03:14:27;;;;;;;6.20;4.17;;;18.90;99.90;;;;;;4921149;29;20594;-75
2022/07/19 03:16:54;;;;;;;9.43;4.03;;;18.90;99.90;;;;;;4921694;29;20207;-75
2022/07/19 03:19:21;;;;;;;6.63;4.10;;;18.90;99.90;;;;;;4920908;29;20222;-75
2022/07/19 03:21:48;;;;;;;6.77;4.20;;;18.90;99.90;;;;;;4920972;29;20195;-75
2022/07/19 03:24:15;;;;;;;10.40;4.60;;;18.90;99.90;;;;;;4938009;29;20254;-75
2022/07/19 03:26:42;;;;;;;8.60;4.50;;;18.80;99.90;;;;;;4921371;29;20663;-75
2022/07/19 03:29:09;;;;;;;8.60;4.07;;;18.80;99.90;;;;;;4920976;29;20748;-81
2022/07/19 03:31:37;;;;;;;6.87;4.13;;;18.80;99.90;;;;;;4920949;29;20738;-76
2022/07/19 03:34:04;;;;;;;7.27;4.20;;;18.90;99.90;;;;;;4920896;29;20230;-75
2022/07/19 03:36:32;;;;;;;6.53;4.30;;;18.90;99.90;;;;;;4920870;29;20309;-76
2022/07/19 03:38:58;;;;;;;10.50;4.37;;;18.90;99.90;;;;;;4936351;29;20588;-76
2022/07/19 03:41:25;;;;;;;7.67;4.70;;;18.90;99.90;;;;;;4937710;29;20222;-77
2022/07/19 03:43:53;;;;;;;8.67;4.50;;;18.90;99.90;;;;;;4920659;29;20306;-75
2022/07/19 03:46:20;;;;;;;7.37;4.70;;;18.90;99.90;;;;;;4937710;29;20556;-76
2022/07/19 03:48:49;;;;;;;9.03;4.70;;;18.90;99.90;;;;;;4919867;29;20290;-75
2022/07/19 03:51:16;;;;;;;8.23;4.47;;;18.90;99.90;;;;;;4920241;29;20298;-76
2022/07/19 03:53:43;;;;;;;9.13;4.80;;;19.00;99.90;;;;;;4920517;29;20286;-76
2022/07/19 03:56:10;;;;;;;8.10;4.73;;;19.00;99.90;;;;;;4920346;29;20214;-77
2022/07/19 03:58:36;;;;;;;11.57;5.07;;;18.90;99.90;;;;;;4920748;29;20574;-75
2022/07/19 04:01:04;;;;;;;9.77;5.03;;;19.00;99.90;;;;;;4920334;29;20210;-76
2022/07/19 04:03:30;;;;;;;14.60;5.37;;;19.10;99.90;;;;;;4920347;29;20207;-81
2022/07/19 04:05:58;;;;;;;10.27;5.17;;;19.10;99.90;;;;;;4920370;29;20637;-76
2022/07/19 04:08:24;;;;;;;7.57;5.23;;;19.10;99.90;;;;;;4919952;29;20269;-75
2022/07/19 04:10:51;;;;;;;8.87;5.10;;;19.20;99.90;;;;;;4937334;29;20202;-76
2022/07/19 04:13:19;;;;;;;7.63;4.83;;;19.20;99.90;;;;;;4937124;29;20197;-75
2022/07/19 04:15:46;;;;;;;12.20;5.67;;;19.20;99.90;;;;;;4937137;29;20197;-76
2022/07/19 04:18:13;;;;;;;8.27;5.07;;;19.30;99.90;;;;;;4919912;29;20250;-75
2022/07/19 04:20:40;;;;;;;6.90;4.87;;;19.30;99.90;;;;;;4935747;29;20289;-81
2022/07/19 04:23:07;;;;;;;7.87;5.13;;;19.40;99.90;;;;;;4920252;29;20195;-76
2022/07/19 04:25:34;;;;;;;7.53;4.63;;;19.50;99.90;;;;;;4919946;29;20213;-78
2022/07/19 04:28:02;;;;;;;9.07;5.30;;;19.50;99.90;;;;;;4919906;29;20301;-78
2022/07/19 04:30:29;;;;;;;7.87;4.70;;;19.50;99.90;;;;;;4919759;29;20203;-76
2022/07/19 04:32:56;;;;;;;7.43;4.60;;;19.50;99.90;;;;;;4936587;29;20562;-77
2022/07/19 04:35:23;;;;;;;9.93;4.90;;;19.60;99.90;;;;;;4919944;29;20297;-77
2022/07/19 04:37:50;;;;;;;7.73;4.90;;;19.60;99.90;;;;;;4919390;29;20213;-78
2022/07/19 04:40:17;;;;;;;8.63;4.73;;;19.70;99.90;;;;;;4919883;29;20199;-76
2022/07/19 04:42:44;;;;;;;10.57;5.00;;;19.70;99.90;;;;;;4919555;29;20199;-76
2022/07/19 04:45:11;;;;;;;9.93;5.47;;;19.80;99.90;;;;;;4919488;29;20194;-76
2022/07/19 04:47:38;;;;;;;12.03;5.23;;;19.90;99.90;;;;;;4919412;29;20238;-76
2022/07/19 04:50:05;;;;;;;9.80;4.80;;;19.90;99.90;;;;;;4919423;29;20290;-75
2022/07/19 04:52:32;;;;;;;6.87;4.40;;;20.00;99.90;;;;;;4919396;29;20219;-76
2022/07/19 04:54:59;;;;;;;8.73;4.90;;;20.00;99.90;;;;;;4919622;29;20575;-76
2022/07/19 04:57:26;;;;;;;9.23;4.43;;;20.10;99.90;;;;;;4919332;29;20281;-79
2022/07/19 04:59:53;;;;;;;7.90;4.47;;;20.20;99.90;;;;;;4919632;29;20229;-80
2022/07/19 05:02:20;;;;;;;6.50;4.50;;;20.10;99.90;;;;;;4918790;29;20612;-75
2022/07/19 05:04:47;;;;;;;9.63;4.50;;;20.20;99.90;;;;;;4919409;29;20195;-76
2022/07/19 05:07:14;;;;;;;16.40;5.93;;;20.00;99.90;;;;;;4918778;29;20574;-78
2022/07/19 05:09:41;;;;;;;8.60;4.60;;;19.90;99.90;;;;;;4918464;29;20202;-77
2022/07/19 05:12:09;;;;;;;7.73;4.30;;;20.00;99.90;;;;;;4918671;29;20198;-77
2022/07/19 05:14:36;;;;;;;11.70;4.33;;;19.90;99.90;;;;;;4919281;29;20195;-79
2022/07/19 05:17:03;;;;;;;13.17;5.20;;;19.90;99.90;;;;;;4919036;29;20254;-78
2022/07/19 05:19:29;;;;;;;7.03;4.27;;;20.00;99.90;;;;;;4919283;29;20230;-80
2022/07/19 05:21:56;;;;;;;9.07;4.97;;;20.00;99.90;;;;;;4936320;29;20230;-78
2022/07/19 05:24:23;;;;;;;10.77;5.00;;;20.00;99.90;;;;;;4919005;29;20206;-76
2022/07/19 05:26:50;;;;;;;7.63;4.70;;;20.00;99.90;;;;;;4919264;29;20191;-78
2022/07/19 05:29:17;;;;;;;8.63;4.83;;;20.10;99.90;;;;;;4918986;29;20207;-80
2022/07/19 05:31:44;;;;;;;7.47;4.33;;;20.20;99.90;;;;;;4918730;29;20222;-77
2022/07/19 05:34:11;;;;;;;8.63;4.70;;;20.10;99.90;;;;;;4919697;29;20731;-78
2022/07/19 05:36:38;;;;;;;9.27;4.73;;;20.30;99.90;;;;;;4918961;29;20213;-78
2022/07/19 05:39:06;;;;;;;8.23;4.47;;;20.20;99.90;;;;;;4936034;29;20696;-76
2022/07/19 05:41:33;;;;;;;10.43;4.70;;;20.30;99.90;;;;;;4934427;29;20625;-77
2022/07/19 05:44:00;;;;;;;11.27;4.63;;;20.30;99.90;;;;;;4918963;29;20352;-77
2022/07/19 05:46:27;;;;;;;15.43;5.40;;;20.30;99.90;;;;;;4918568;29;20641;-80
2022/07/19 05:48:54;;;;;;;10.30;4.60;;;20.30;99.90;;;;;;4918980;29;20206;-77
2022/07/19 05:51:21;;;;;;;9.27;4.60;;;20.40;99.90;;;;;;4935763;29;20357;-75
2022/07/19 05:53:48;;;;;;;10.73;5.40;;;20.50;99.90;;;;;;4935637;29;20274;-75
2022/07/19 05:56:15;;;;;;;7.70;4.63;;;20.40;99.90;;;;;;4918613;29;20211;-76
2022/07/19 05:58:42;;;;;;;11.57;4.63;;;20.40;99.90;;;;;;4918667;29;20227;-74
2022/07/19 06:01:17;;;;;;;12.23;5.67;;;20.50;99.90;;;;;;4935328;29;20195;-74
2022/07/19 06:03:57;;;;;;;11.80;4.97;;;20.50;99.90;;;;;;4935536;29;20194;-74
2022/07/19 06:06:32;;;;;;;9.03;4.67;;;20.60;99.90;;;;;;4918557;29;20199;-75
2022/07/19 06:09:00;;;;;;;13.10;4.73;;;20.70;99.90;;;;;;4935610;29;20322;-75
2022/07/19 06:11:29;;;;;;;12.10;5.30;;;20.70;99.90;;;;;;4918360;29;20203;-75
2022/07/19 06:13:57;;;;;;;11.30;4.97;;;20.70;99.90;;;;;;4936898;29;20602;-75
2022/07/19 06:16:27;;;;;;;9.27;5.00;;;20.80;99.90;;;;;;4921911;29;20616;-76
2022/07/19 06:18:55;;;;;;;9.50;5.17;;;20.70;99.90;;;;;;4938104;29;20250;-76
2022/07/19 06:21:22;;;;;;;12.33;5.40;;;20.70;99.90;;;;;;4921999;29;20205;-76
2022/07/19 06:23:49;;;;;;;10.33;5.00;;;20.60;99.90;;;;;;4938857;29;20219;-77
2022/07/19 06:26:16;;;;;;;11.47;5.30;;;20.80;99.90;;;;;;4938921;29;20195;-78
2022/07/19 06:28:44;;;;;;;7.57;4.27;;;20.90;99.90;;;;;;4922067;29;20213;-76
2022/07/19 06:31:12;;;;;;;12.40;5.07;;;21.00;99.90;;;;;;4905526;29;20622;-77
2022/07/19 06:33:43;;;;;;;8.83;5.00;;;21.10;99.90;;;;;;4921585;29;20210;-77
2022/07/19 06:36:11;;;;;;;11.70;4.90;;;21.10;99.90;;;;;;4938809;29;20307;-77
2022/07/19 06:38:42;;;;;;;13.70;4.77;;;21.00;99.90;;;;;;4921417;29;20322;-79
2022/07/19 06:41:10;;;;;;;13.20;4.90;;;21.00;99.90;;;;;;4920925;29;20306;-79
2022/07/19 06:43:39;;;;;;;8.50;5.00;;;21.10;99.90;;;;;;4920961;29;20227;-79
2022/07/19 06:46:06;;;;;;;11.33;5.07;;;21.30;99.90;;;;;;4938281;29;20198;-80
2022/07/19 06:48:34;;;;;;;11.37;4.70;;;21.30;99.90;;;;;;4938594;29;20262;-80
2022/07/19 06:51:10;;;;;;;8.80;4.60;;;21.20;99.90;;;;;;4904384;29;20210;-84
2022/07/19 06:53:43;;;;;;;8.97;4.60;;;21.30;99.90;;;;;;4942884;29;20221;-83
2022/07/19 06:56:10;;;;;;;8.63;4.80;;;21.30;99.90;;;;;;4940418;29;20626;-94
2022/07/19 07:01:13;;;;;;;9.53;4.67;;;21.40;99.90;;;;;;4841544;27;20318;-87
2022/07/19 07:04:44;;;;;;;8.70;4.70;;;21.30;99.90;;;;;;4880368;29;20308;-86
2022/07/19 07:07:13;;;;;;;9.37;4.67;;;21.30;99.90;;;;;;4864929;29;20217;-87
2022/07/19 07:09:46;;;;;;;8.00;4.23;;;21.40;99.90;;;;;;4880310;29;20205;-88
2022/07/19 07:13:23;;;;;;;7.80;4.30;;;21.30;99.90;;;;;;4842068;29;20205;-85
2022/07/19 07:24:15;;;;;;;7.53;4.37;;;21.50;99.90;;;;;;4774890;29;20188;-88
2022/07/19 07:27:03;;;;;;;8.90;4.23;;;21.80;99.90;;;;;;4790719;29;20191;-87
2022/07/19 07:32:20;;;;;;;11.70;4.80;;;22.30;99.90;;;;;;4804965;29;20207;-84
2022/07/19 07:35:07;;;;;;;9.73;4.53;;;22.30;99.90;;;;;;4790407;29;20689;-85
2022/07/19 07:38:18;;;;;;;9.60;4.50;;;22.50;99.90;;;;;;4790520;29;20654;-88
2022/07/19 07:40:44;;;;;;;14.67;4.80;;;22.80;99.90;;;;;;4767108;29;20240;-84
2022/07/19 07:43:10;;;;;;;11.70;4.80;;;22.90;99.90;;;;;;4774696;30;20271;-86
2022/07/19 07:45:36;;;;;;;10.15;4.10;;;22.90;99.90;;;;;;4757840;30;20718;-84
2022/07/19 07:48:01;;;;;;;9.67;4.60;;;23.20;99.90;;;;;;4770731;30;20195;-83
2022/07/19 07:50:27;;;;;;;7.70;3.73;;;23.10;99.90;;;;;;4758080;30;20200;-86
2022/07/19 07:52:53;;;;;;;10.38;4.30;;;23.20;99.90;;;;;;4782130;29;20209;-86
2022/07/19 07:55:38;;;;;;;9.73;4.60;;;23.20;99.90;;;;;;4798455;29;20212;-84
2022/07/19 07:58:08;;;;;;;9.03;4.17;;;22.80;99.90;;;;;;4791681;30;20204;-93
2022/07/19 08:00:36;;;;;;;10.75;4.55;;;22.90;99.90;;;;;;4774959;30;20320;-87
2022/07/19 08:03:04;;;;;;;7.20;4.40;;;23.10;99.90;;;;;;4806883;29;20208;-83
2022/07/19 08:05:37;;;;;;;10.27;4.57;;;23.20;99.90;;;;;;4778721;30;20212;-81
2022/07/19 08:08:04;;;;;;;8.80;4.47;;;23.20;99.90;;;;;;4792676;29;20257;-85
2022/07/19 08:10:33;;;;;;;11.60;4.80;;;23.20;99.90;;;;;;4788878;29;20212;-84
2022/07/19 08:13:03;;;;;;;10.97;4.23;;;23.20;99.90;;;;;;4790193;30;20184;-84
2022/07/19 08:15:37;;;;;;;7.38;4.45;;;23.20;99.90;;;;;;4787095;30;20301;-86
2022/07/19 08:18:05;;;;;;;10.90;4.30;;;23.10;99.90;;;;;;4820267;29;20201;-82
2022/07/19 08:20:32;;;;;;;7.67;4.20;;;23.10;99.90;;;;;;4861305;29;20679;-84
2022/07/19 08:22:59;;;;;;;10.50;4.60;;;23.10;99.90;;;;;;4861388;29;20543;-94
2022/07/19 08:25:26;;;;;;;9.02;4.10;;;23.20;99.90;;;;;;4861564;29;20293;-91
2022/07/19 08:27:53;;;;;;;10.87;4.60;;;23.30;99.90;;;;;;4878004;29;20227;-86
2022/07/19 08:30:20;;;;;;;10.57;4.60;;;23.30;99.90;;;;;;4867038;29;20209;-84
2022/07/19 08:32:47;;;;;;;12.63;4.60;;;23.50;99.90;;;;;;4875461;29;20217;-86
2022/07/19 08:35:14;;;;;;;10.82;4.25;;;23.60;99.90;;;;;;4850375;29;20232;-86
2022/07/19 08:37:41;;;;;;;10.10;4.78;;;23.60;99.90;;;;;;4864763;29;20296;-89
2022/07/19 08:40:08;;;;;;;9.23;4.33;;;23.50;99.90;;;;;;4863803;29;20316;-86
2022/07/19 08:42:36;;;;;;;6.18;3.78;;;23.40;99.90;;;;;;4862195;29;20589;-84
2022/07/19 08:45:09;;;;;;;8.88;4.28;;;23.60;99.90;;;;;;4861633;29;20213;-88
2022/07/19 08:47:39;;;;;;;6.60;4.40;;;23.80;99.90;;;;;;4861259;29;20194;-84
2022/07/19 08:50:09;;;;;;;7.00;3.78;;;23.90;99.90;;;;;;4861814;29;20544;-87
2022/07/19 08:52:37;;;;;;;7.20;3.60;;;24.10;99.90;;;;;;4879945;29;20341;-83
2022/07/19 08:55:05;;;;;;;11.88;4.20;;;24.10;99.90;;;;;;4878621;29;20686;-83
2022/07/19 09:00:17;;;;;;;8.27;3.72;;;23.90;99.90;;;;;;4862804;29;20241;-79
2022/07/19 09:03:15;;;;;;;8.00;3.78;;;24.30;99.90;;;;;;4878583;29;20610;-86
2022/07/19 09:05:42;;;;;;;8.25;3.95;;;24.60;99.90;;;;;;4844010;29;20289;-81
2022/07/19 09:08:17;;;;;;;16.17;4.28;;;24.70;99.90;;;;;;4825620;29;20209;-85
2022/07/19 09:13:32;;;;;;;9.43;4.10;;;25.00;99.90;;;;;;4825429;29;20241;-83
2022/07/19 09:15:59;;;;;;;9.95;4.22;;;25.30;99.90;;;;;;4840598;29;20743;-83
2022/07/19 09:18:31;;;;;;;12.10;4.18;;;25.40;99.90;;;;;;4840225;29;20250;-82
2022/07/19 09:21:04;;;;;;;8.85;4.35;;;25.80;99.90;;;;;;4839962;29;20700;-82
2022/07/19 09:23:32;;;;;;;7.70;4.13;;;25.80;99.90;;;;;;4825123;29;20202;-81
2022/07/19 09:26:05;;;;;;;6.22;3.97;;;26.30;99.90;;;;;;4824967;29;20216;-83
2022/07/19 09:28:34;;;;;;;9.13;4.15;;;27.00;99.90;;;;;;4825090;29;20202;-82
2022/07/19 09:31:04;;;;;;;7.68;3.50;;;27.80;99.90;;;;;;4840091;29;20225;-84
2022/07/19 09:33:33;;;;;;;7.50;3.92;;;28.20;99.90;;;;;;4840293;29;20206;-80
2022/07/19 09:36:12;;;;;;;8.68;3.80;;;28.70;99.90;;;;;;4840039;29;20285;-81
2022/07/19 09:38:43;;;;;;;9.55;3.78;;;28.90;99.90;;;;;;4825143;29;20213;-83
2022/07/19 09:41:16;;;;;;;7.32;3.60;;;28.70;99.90;;;;;;4844190;29;20226;-82
2022/07/19 09:44:02;;;;;;;10.68;4.07;;;28.60;99.90;;;;;;4879378;29;20203;-81
2022/07/19 09:46:38;;;;;;;6.25;3.60;;;28.80;99.00;;;;;;4862939;29;20269;-76
2022/07/19 09:49:17;;;;;;;7.05;3.50;;;29.10;98.80;;;;;;4882934;29;20235;-78
2022/07/19 09:51:49;;;;;;;7.70;3.58;;;29.60;98.00;;;;;;4881578;29;20212;-78
2022/07/19 09:54:27;;;;;;;7.50;3.45;;;29.70;96.40;;;;;;4881803;29;20239;-80
2022/07/19 09:56:55;;;;;;;9.45;3.65;;;29.60;95.30;;;;;;4881891;29;20659;-79
2022/07/19 09:59:23;;;;;;;8.32;3.40;;;29.60;93.80;;;;;;4866141;29;20403;-81
2022/07/19 10:01:53;;;;;;;5.57;3.22;;;29.70;91.90;;;;;;4881633;29;20215;-78
2022/07/19 10:04:25;;;;;;;5.38;3.22;;;29.80;91.30;;;;;;4865948;29;20288;-85
2022/07/19 10:06:53;;;;;;;6.35;3.00;;;30.10;91.10;;;;;;4866144;29;20212;-79
2022/07/19 10:09:23;;;;;;;5.53;3.08;;;30.50;91.70;;;;;;4866374;29;20204;-80
2022/07/19 10:11:56;;;;;;;7.90;3.10;;;29.90;87.90;;;;;;4882476;29;20200;-79
2022/07/19 10:14:23;;;;;;;6.20;2.95;;;30.20;86.00;;;;;;4865734;29;20295;-77
2022/07/19 10:16:56;;;;;;;5.15;3.20;;;30.40;87.50;;;;;;4881845;29;20643;-79
2022/07/19 10:19:38;;;;;;;5.82;2.72;;;30.90;87.70;;;;;;4881052;29;20217;-77
2022/07/19 10:22:11;;;;;;;4.05;2.95;;;30.50;82.50;;;;;;4881080;29;20207;-78
2022/07/19 10:25:15;;;;;;;3.90;2.78;;;30.40;81.40;;;;;;4865748;29;20208;-77
2022/07/19 10:27:45;;;;;;;6.15;2.90;;;30.60;81.70;;;;;;4863685;29;20307;-77
2022/07/19 10:30:12;;;;;;;5.72;2.70;;;31.00;80.30;;;;;;4865402;29;20304;-77
2022/07/19 10:32:48;;;;;;;7.03;2.58;;;31.40;76.20;;;;;;4880905;29;20225;-77
2022/07/19 10:35:18;;;;;;;4.57;2.67;;;31.80;76.30;;;;;;4880991;29;20295;-76
2022/07/19 10:37:49;;;;;;;18.00;5.35;;;31.90;73.80;;;;;;4881123;29;20238;-81
2022/07/19 10:40:34;;;;;;;19.23;5.35;;;31.90;75.00;;;;;;4865337;29;20725;-79
2022/07/19 10:43:06;;;;;;;6.20;3.13;;;32.50;74.20;;;;;;4880666;29;20573;-81
2022/07/19 10:45:33;;;;;;;7.05;3.50;;;33.10;70.80;;;;;;4880923;29;20622;-81
2022/07/19 10:48:03;;;;;;;10.13;3.83;;;33.40;71.60;;;;;;4880685;29;20295;-83
2022/07/19 10:50:51;;;;;;;11.48;4.03;;;33.70;69.20;;;;;;4882424;29;20279;-80
2022/07/19 10:53:40;;;;;;;6.32;3.28;;;34.10;69.30;;;;;;4880716;29;20303;-78
2022/07/19 10:56:30;;;;;;;6.78;3.40;;;34.60;67.90;;;;;;4880575;29;20295;-81
2022/07/19 10:59:02;;;;;;;5.75;2.97;;;33.50;64.40;;;;;;4864253;29;20205;-80
2022/07/19 11:01:33;;;;;;;5.95;3.15;;;31.80;67.30;;;;;;4880412;29;20251;-81
2022/07/19 11:04:21;;;;;;;7.00;3.28;;;32.40;69.00;;;;;;4880724;29;20202;-79
2022/07/19 11:06:49;;;;;;;11.05;4.30;;;32.80;66.90;;;;;;4880689;29;20572;-79
2022/07/19 11:09:16;;;;;;;8.35;4.10;;;33.40;65.10;;;;;;4880386;29;20205;-80
2022/07/19 11:11:51;;;;;;;144.80;18.77;;;33.50;64.00;;;;;;4880100;29;20204;-79
2022/07/19 11:14:19;;;;;;;9.05;3.42;;;33.70;65.20;;;;;;4879990;29;20228;-76
2022/07/19 11:16:58;;;;;;;5.05;3.50;;;34.00;65.00;;;;;;4880123;29;20296;-79
2022/07/19 11:19:28;;;;;;;6.25;3.45;;;33.60;62.90;;;;;;4864665;29;20204;-80
2022/07/19 11:22:01;;;;;;;8.30;3.40;;;33.60;63.30;;;;;;4881684;29;20208;-79
2022/07/19 11:24:28;;;;;;;4.68;3.10;;;33.60;63.90;;;;;;4864721;29;20193;-79
2022/07/19 11:26:55;;;;;;;4.55;3.40;;;33.50;62.70;;;;;;4879859;29;20291;-82
2022/07/19 11:29:22;;;;;;;4.00;3.10;;;33.50;63.00;;;;;;4880068;29;20261;-81
2022/07/19 11:31:50;;;;;;;5.22;3.33;;;34.20;63.60;;;;;;4881066;29;20231;-82
2022/07/19 11:34:17;;;;;;;5.35;3.60;;;34.20;61.80;;;;;;4880375;29;20673;-79
2022/07/19 11:36:57;;;;;;;9.52;3.50;;;34.50;61.50;;;;;;4880032;29;20205;-79
2022/07/19 11:39:24;;;;;;;6.07;3.65;;;34.70;60.70;;;;;;4881817;29;20280;-79
2022/07/19 11:41:51;;;;;;;5.47;3.45;;;34.70;59.00;;;;;;4879692;29;20257;-82
2022/07/19 11:44:18;;;;;;;5.28;3.28;;;35.10;59.40;;;;;;4881031;29;20288;-80
2022/07/19 11:46:45;;;;;;;4.25;2.85;;;35.20;59.70;;;;;;4880180;29;20213;-81
2022/07/19 11:49:14;;;;;;;4.47;3.28;;;35.10;58.90;;;;;;4864360;29;20199;-84
2022/07/19 11:51:41;;;;;;;7.65;3.58;;;34.60;58.50;;;;;;4879773;29;20208;-78
2022/07/19 11:54:09;;;;;;;5.93;3.67;;;34.40;58.20;;;;;;4864015;29;20256;-80
2022/07/19 11:56:38;;;;;;;5.18;3.70;;;34.50;58.90;;;;;;4863681;29;20607;-77
2022/07/19 11:59:11;;;;;;;4.97;3.40;;;35.20;58.50;;;;;;4879790;29;20626;-78
2022/07/19 12:01:40;;;;;;;7.30;3.63;;;34.80;58.10;;;;;;4879276;29;20246;-80
2022/07/19 12:04:35;;;;;;;7.93;3.75;;;35.80;57.60;;;;;;4879308;29;20201;-79
2022/07/19 12:07:03;;;;;;;5.88;3.30;;;36.10;55.90;;;;;;4879316;29;20205;-82
2022/07/19 12:09:32;;;;;;;5.22;2.92;;;35.40;55.00;;;;;;4879193;29;20544;-79
2022/07/19 12:12:15;;;;;;;4.93;3.25;;;35.40;55.50;;;;;;4862646;29;20288;-79
2022/07/19 12:14:43;;;;;;;7.28;3.63;;;34.60;55.80;;;;;;4863792;29;20256;-77
2022/07/19 12:17:18;;;;;;;8.15;3.28;;;34.80;56.70;;;;;;4879176;29;20264;-78
2022/07/19 12:20:06;;;;;;;8.68;3.45;;;35.80;56.20;;;;;;4880371;29;20220;-79
2022/07/19 12:22:53;;;;;;;5.60;3.42;;;36.30;54.70;;;;;;4879316;29;20205;-81
2022/07/19 12:25:36;;;;;;;5.22;2.55;;;35.80;55.00;;;;;;4879117;29;20240;-80
2022/07/19 12:28:03;;;;;;;6.85;3.45;;;36.10;54.70;;;;;;4879133;29;20650;-80
2022/07/19 12:30:30;;;;;;;5.20;3.15;;;36.10;53.80;;;;;;4878882;29;20197;-78
2022/07/19 12:33:10;;;;;;;6.70;3.10;;;36.40;54.70;;;;;;4878593;29;20248;-80
2022/07/19 12:35:44;;;;;;;5.00;3.15;;;37.10;54.10;;;;;;4878902;29;20228;-72
2022/07/19 12:38:12;;;;;;;5.43;3.30;;;37.70;53.30;;;;;;4879024;29;20666;-79
2022/07/19 12:40:42;;;;;;;5.22;3.40;;;37.30;51.50;;;;;;4863159;29;20256;-79
2022/07/19 12:43:13;;;;;;;4.65;3.33;;;36.60;52.70;;;;;;4879207;29;20215;-77
2022/07/19 12:45:46;;;;;;;6.35;3.47;;;36.40;52.40;;;;;;4880125;29;20224;-73
2022/07/19 12:48:15;;;;;;;6.95;3.40;;;35.50;52.90;;;;;;4878845;29;20205;-75
2022/07/19 12:50:45;;;;;;;6.57;3.55;;;35.60;53.70;;;;;;4863202;29;20714;-74
2022/07/19 12:53:14;;;;;;;5.55;3.50;;;36.00;53.00;;;;;;4878699;29;20746;-73
2022/07/19 12:55:44;;;;;;;5.28;3.20;;;35.40;53.50;;;;;;4878650;29;20200;-73
2022/07/19 12:59:38;;;;;;;4.30;3.30;;;35.90;53.50;;;;;;4863245;29;20291;-73
2022/07/19 13:01:02;;;;;;;3.95;3.30;;;35.80;52.60;;;;;;4878208;29;20240;-73
2022/07/19 13:03:29;;;;;;;5.88;3.40;;;35.00;52.80;;;;;;4872514;29;20595;-77
2022/07/19 13:05:59;;;;;;;5.28;3.58;;;35.70;52.90;;;;;;4857685;29;20847;-75
2022/07/19 13:08:27;;;;;;;8.65;3.60;;;36.00;52.70;;;;;;4844581;29;20194;-76
2022/07/19 13:10:55;;;;;;;6.25;3.50;;;36.10;52.40;;;;;;4844472;29;20221;-74
2022/07/19 13:13:22;;;;;;;5.90;3.10;;;35.70;51.70;;;;;;4842467;29;20632;-75
2022/07/19 13:15:49;;;;;;;5.43;3.05;;;35.20;51.40;;;;;;4859657;29;20205;-75
2022/07/19 13:18:17;;;;;;;5.00;3.25;;;34.60;52.30;;;;;;4859580;29;20568;-74